Time;durP1;ratioP1;P1;durP2;ratioP2;P2;SDS_P1;SDS_P2;PMS_P1;PMS_P2;Temp;Humidity;BMP_temperature;BMP_pressure;BME280_temperature;BME280_humidity;BME280_pressure;Samples;Min_cycle;Max_cycle;Signal;HPM_P1;HPM_P2
2021/06/03 00:01:55;;;;;;;10.07;5.63;;;15.50;29.30;;;;;;4897587;29;20499;-88
2021/06/03 00:04:20;;;;;;;9.43;5.68;;;15.50;29.50;;;;;;4899121;29;20111;-88
2021/06/03 00:07:12;;;;;;;;;;;;;;;;;;;;;
2021/06/03 00:10:10;;;;;;;10.48;5.88;;;15.30;29.90;;;;;;4898210;29;20035;-89
2021/06/03 00:12:53;;;;;;;9.52;5.78;;;15.40;30.00;;;;;;4907412;29;20029;-89
2021/06/03 00:15:27;;;;;;;11.88;5.75;;;15.30;30.20;;;;;;4898113;29;20025;-89
2021/06/03 00:18:10;;;;;;;11.05;5.65;;;15.20;30.00;;;;;;4903917;29;20040;-89
2021/06/03 00:21:04;;;;;;;12.23;5.72;;;15.10;30.10;;;;;;4898040;29;20043;-89
2021/06/03 00:23:32;;;;;;;10.95;5.40;;;15.00;30.30;;;;;;4914619;29;20119;-89
2021/06/03 00:27:00;;;;;;;12.32;6.00;;;15.00;30.30;;;;;;4900174;29;20465;-89
2021/06/03 00:29:28;;;;;;;9.73;6.00;;;14.90;30.80;;;;;;4860866;29;20044;-90
2021/06/03 00:31:57;;;;;;;9.43;5.70;;;14.80;30.60;;;;;;4868571;29;20036;-91
2021/06/03 01:01:59;;;;;;;10.80;6.85;;;14.20;32.90;;;;;;5858968;23;20043;-91
2021/06/03 01:04:25;;;;;;;11.38;7.28;;;14.10;32.10;;;;;;4917860;29;20032;-90
2021/06/03 01:06:51;;;;;;;10.43;6.68;;;14.10;32.40;;;;;;4916538;29;20036;-91
2021/06/03 01:09:53;;;;;;;10.35;6.80;;;14.00;32.40;;;;;;4917428;29;20024;-92
2021/06/03 01:12:24;;;;;;;10.10;7.10;;;14.00;32.70;;;;;;4893989;29;20040;-91
2021/06/03 01:14:58;;;;;;;11.23;7.43;;;13.90;32.80;;;;;;4918830;29;20079;-91
2021/06/03 01:20:50;;;;;;;10.70;7.15;;;13.90;33.30;;;;;;4932442;29;20047;-92
2021/06/03 01:36:54;;;;;;;10.93;6.93;;;13.50;33.60;;;;;;4846001;29;20036;-91
2021/06/03 01:46:16;;;;;;;11.55;7.78;;;13.40;34.00;;;;;;4802782;29;20534;-93
2021/06/03 01:48:48;;;;;;;11.80;7.85;;;13.30;33.90;;;;;;4841603;29;20034;-92
2021/06/03 01:51:15;;;;;;;10.57;7.55;;;13.20;34.20;;;;;;4826086;29;20063;-92
2021/06/03 01:53:41;;;;;;;13.02;7.28;;;13.20;34.30;;;;;;4887271;29;20080;-91
2021/06/03 01:56:10;;;;;;;11.93;7.90;;;13.20;34.30;;;;;;4919836;29;20028;-91
2021/06/03 01:58:36;;;;;;;11.60;7.82;;;13.10;34.50;;;;;;4919724;29;20055;-90
2021/06/03 02:01:04;;;;;;;11.65;7.07;;;13.00;34.70;;;;;;4921023;29;20024;-91
2021/06/03 02:03:30;;;;;;;11.02;7.50;;;13.10;35.00;;;;;;4920972;29;20118;-89
2021/06/03 02:05:56;;;;;;;12.75;7.75;;;13.00;35.00;;;;;;4937907;29;20060;-88
2021/06/03 02:08:22;;;;;;;11.77;7.90;;;13.00;35.20;;;;;;4917339;29;20020;-90
2021/06/03 02:10:49;;;;;;;11.93;7.75;;;12.90;35.30;;;;;;4908982;29;20024;-89
2021/06/03 02:13:18;;;;;;;13.35;8.32;;;12.90;35.50;;;;;;4923344;29;20016;-89
2021/06/03 02:15:57;;;;;;;12.02;7.65;;;12.90;35.70;;;;;;4937300;29;20023;-90
2021/06/03 02:18:39;;;;;;;10.88;7.75;;;12.80;36.10;;;;;;4920269;29;20028;-89
2021/06/03 02:21:06;;;;;;;11.38;7.93;;;12.80;36.10;;;;;;4919996;29;20047;-89
2021/06/03 02:23:33;;;;;;;11.35;8.15;;;12.70;35.80;;;;;;4918991;29;20027;-90
2021/06/03 02:26:00;;;;;;;11.23;7.68;;;12.70;36.10;;;;;;4919067;29;20121;-89
2021/06/03 02:28:28;;;;;;;11.18;7.25;;;12.60;36.00;;;;;;4919195;29;20020;-92
2021/06/03 02:30:56;;;;;;;11.90;8.00;;;12.50;36.20;;;;;;4919349;29;20060;-91
2021/06/03 02:33:22;;;;;;;11.75;7.97;;;12.50;36.40;;;;;;4920026;29;20020;-92
2021/06/03 02:35:49;;;;;;;11.55;7.32;;;12.40;36.50;;;;;;4936243;29;20361;-91
2021/06/03 02:38:16;;;;;;;13.10;8.70;;;12.50;36.60;;;;;;4919190;29;20020;-89
2021/06/03 02:40:42;;;;;;;12.15;8.52;;;12.40;36.70;;;;;;4918727;29;20499;-89
2021/06/03 02:43:10;;;;;;;11.75;8.48;;;12.40;36.90;;;;;;4918678;29;20024;-89
2021/06/03 02:45:46;;;;;;;11.77;8.68;;;12.40;37.00;;;;;;4918797;29;20027;-89
2021/06/03 02:48:14;;;;;;;13.38;8.57;;;12.40;37.20;;;;;;4918627;29;20024;-89
2021/06/03 02:50:42;;;;;;;12.38;8.13;;;12.30;37.30;;;;;;4936179;29;20024;-89
2021/06/03 02:53:07;;;;;;;11.43;8.23;;;12.30;37.40;;;;;;4935866;29;20028;-89
2021/06/03 02:55:33;;;;;;;12.50;8.57;;;12.20;37.40;;;;;;4918052;29;20153;-89
2021/06/03 02:57:59;;;;;;;12.38;8.77;;;12.20;37.50;;;;;;4935784;29;20031;-89
2021/06/03 03:00:28;;;;;;;12.82;8.52;;;12.10;37.70;;;;;;4934994;29;20043;-89
2021/06/03 03:02:54;;;;;;;12.52;8.35;;;12.20;38.00;;;;;;4918233;29;20047;-90
2021/06/03 03:05:20;;;;;;;12.88;8.55;;;12.10;38.00;;;;;;4918033;29;20478;-90
2021/06/03 03:07:49;;;;;;;12.40;7.95;;;12.10;38.20;;;;;;4932958;29;20071;-89
2021/06/03 03:10:29;;;;;;;14.50;9.05;;;12.10;38.30;;;;;;4917974;29;20062;-89
2021/06/03 03:12:56;;;;;;;12.02;8.52;;;12.10;38.80;;;;;;4917904;29;20032;-89
2021/06/03 03:15:36;;;;;;;;;;;;;;;;;;;;;
2021/06/03 03:18:41;;;;;;;;;;;;;;;;;;;;;
2021/06/03 03:21:07;;;;;;;13.57;9.43;;;12.00;38.80;;;;;;4935542;29;20054;-92
2021/06/03 03:23:33;;;;;;;12.40;8.82;;;12.00;38.60;;;;;;4912570;29;20118;-92
2021/06/03 03:26:25;;;;;;;;;;;;;;;;;;;;;
2021/06/03 03:29:00;;;;;;;12.75;8.27;;;12.00;39.30;;;;;;4935329;29;20034;-93
2021/06/03 03:31:26;;;;;;;;;;;11.90;39.10;;;;;;4904204;29;20110;-93
2021/06/03 03:33:52;;;;;;;12.77;8.10;;;11.90;38.70;;;;;;4918953;29;20345;-93
2021/06/03 03:36:20;;;;;;;13.10;8.50;;;11.90;38.90;;;;;;4918488;29;20056;-91
2021/06/03 03:38:46;;;;;;;13.68;8.85;;;11.80;39.00;;;;;;4918871;29;20470;-91
2021/06/03 03:41:11;;;;;;;13.32;9.07;;;11.80;39.20;;;;;;4918028;29;20123;-91
2021/06/03 03:43:37;;;;;;;15.35;9.07;;;11.90;39.40;;;;;;4902285;29;20127;-91
2021/06/03 03:46:03;;;;;;;13.23;9.50;;;11.80;39.50;;;;;;4917727;29;20023;-90
2021/06/03 03:48:29;;;;;;;15.35;9.45;;;11.80;39.70;;;;;;4917740;29;20023;-90
2021/06/03 03:50:55;;;;;;;15.13;10.07;;;11.80;39.80;;;;;;4917822;29;20495;-90
2021/06/03 03:53:21;;;;;;;14.57;10.10;;;11.80;39.90;;;;;;4917791;29;20020;-90
2021/06/03 04:03:26;;;;;;;13.63;9.38;;;11.90;41.00;;;;;;4892522;29;20063;-89
2021/06/03 04:05:52;;;;;;;15.18;9.52;;;11.90;40.50;;;;;;4898304;29;20044;-91
2021/06/03 04:08:21;;;;;;;15.60;9.23;;;11.90;40.40;;;;;;4898576;29;20396;-90
2021/06/03 04:10:47;;;;;;;13.38;9.95;;;11.80;40.50;;;;;;4883441;29;20055;-90
2021/06/03 04:13:14;;;;;;;13.70;9.95;;;11.90;40.80;;;;;;4898768;29;20455;-92
2021/06/03 04:15:40;;;;;;;14.85;9.52;;;11.90;41.00;;;;;;4901700;29;20074;-92
2021/06/03 04:18:06;;;;;;;13.30;10.02;;;12.00;41.10;;;;;;4905384;29;20485;-93
2021/06/03 04:20:33;;;;;;;14.93;9.50;;;12.00;41.20;;;;;;4901050;29;20058;-93
2021/06/03 04:23:00;;;;;;;13.57;10.18;;;12.10;41.30;;;;;;4899249;29;20016;-93
2021/06/03 04:25:25;;;;;;;18.58;13.50;;;12.20;41.50;;;;;;4898396;29;20032;-92
2021/06/03 04:27:51;;;;;;;14.68;11.07;;;12.10;41.50;;;;;;4899722;29;20385;-92
2021/06/03 04:30:20;;;;;;;14.10;10.65;;;12.20;41.80;;;;;;4898886;29;20033;-92
2021/06/03 04:32:46;;;;;;;13.07;9.45;;;12.20;41.90;;;;;;4915940;29;20040;-92
2021/06/03 04:35:12;;;;;;;12.60;8.80;;;12.30;42.00;;;;;;4899579;29;20032;-92
2021/06/03 04:37:38;;;;;;;13.73;8.90;;;12.30;42.20;;;;;;4899551;29;20020;-91
2021/06/03 04:40:08;;;;;;;11.93;8.75;;;12.40;42.30;;;;;;4898770;29;20044;-91
2021/06/03 04:42:33;;;;;;;12.35;8.65;;;12.40;42.40;;;;;;4914234;29;20373;-91
2021/06/03 04:44:59;;;;;;;12.57;8.70;;;12.50;42.50;;;;;;4916141;29;20024;-90
2021/06/03 04:47:25;;;;;;;11.60;8.40;;;12.60;42.60;;;;;;4898430;29;20028;-91
2021/06/03 04:49:51;;;;;;;12.70;8.95;;;12.60;42.70;;;;;;4902298;29;20028;-91
2021/06/03 04:52:26;;;;;;;13.45;9.40;;;12.80;42.90;;;;;;4901949;29;20024;-90
2021/06/03 04:54:53;;;;;;;;;;;12.80;42.90;;;;;;4902263;29;20032;-91
2021/06/03 04:57:18;;;;;;;12.25;8.07;;;12.80;42.60;;;;;;4902423;29;20336;-91
2021/06/03 04:59:45;;;;;;;12.82;8.45;;;12.90;42.80;;;;;;4902088;29;20035;-91
2021/06/03 05:15:39;;;;;;;14.07;8.40;;;13.30;43.50;;;;;;5732273;23;20048;-90
2021/06/03 05:18:05;;;;;;;13.15;8.00;;;13.40;43.80;;;;;;4935590;29;20102;-91
2021/06/03 05:20:31;;;;;;;13.35;8.05;;;13.50;43.70;;;;;;4937287;28;20126;-90
2021/06/03 05:23:01;;;;;;;12.07;8.30;;;13.60;43.80;;;;;;4940380;29;20019;-90
2021/06/03 05:25:31;;;;;;;35.95;27.25;;;13.70;44.00;;;;;;4940256;28;20468;-90
2021/06/03 05:27:57;;;;;;;15.80;10.27;;;13.80;44.20;;;;;;4940530;28;20106;-91
2021/06/03 05:30:24;;;;;;;10.63;6.85;;;13.90;44.20;;;;;;4939449;29;20074;-89
2021/06/03 05:32:50;;;;;;;11.23;6.30;;;14.00;44.30;;;;;;4939455;28;20023;-89
2021/06/03 05:35:20;;;;;;;10.60;6.47;;;14.10;44.50;;;;;;4957101;28;20023;-89
2021/06/03 05:37:47;;;;;;;10.05;5.82;;;14.20;44.60;;;;;;4938776;28;20479;-89
2021/06/03 05:40:33;;;;;;;10.35;6.07;;;14.40;44.70;;;;;;4939351;28;20090;-88
2021/06/03 05:43:05;;;;;;;9.43;5.45;;;14.50;44.90;;;;;;4935062;29;20024;-88
2021/06/03 05:49:28;;;;;;;;;;;;;;;;;;;;;
2021/06/03 05:52:02;;;;;;;8.35;4.38;;;15.00;45.00;;;;;;4850178;29;20040;-92
2021/06/03 05:54:30;;;;;;;9.47;4.17;;;15.20;45.00;;;;;;4934640;29;20039;-91
2021/06/03 05:56:56;;;;;;;8.07;3.90;;;15.40;45.10;;;;;;4939520;28;20015;-89
2021/06/03 05:59:25;;;;;;;8.80;3.95;;;15.50;45.00;;;;;;4955991;28;20043;-89
2021/06/03 06:01:54;;;;;;;6.78;3.47;;;15.60;45.10;;;;;;4932497;29;20110;-90
2021/06/03 06:06:48;;;;;;;7.30;3.85;;;15.90;45.10;;;;;;4939993;29;20042;-90
2021/06/03 06:09:14;;;;;;;7.95;3.97;;;16.10;45.40;;;;;;4952982;28;20027;-85
2021/06/03 06:11:42;;;;;;;8.73;3.67;;;16.20;45.30;;;;;;4938945;28;20028;-85
2021/06/03 06:14:08;;;;;;;7.00;3.28;;;16.30;45.20;;;;;;4950355;28;20487;-87
2021/06/03 06:16:38;;;;;;;8.25;3.17;;;16.50;45.60;;;;;;4930756;28;20063;-82
2021/06/03 06:19:05;;;;;;;7.15;3.25;;;16.60;46.00;;;;;;4947531;28;20031;-82
2021/06/03 06:21:31;;;;;;;6.80;3.40;;;16.70;45.30;;;;;;4947978;28;20019;-82
2021/06/03 06:23:57;;;;;;;7.18;3.50;;;16.80;45.40;;;;;;4948198;28;20094;-82
2021/06/03 06:26:24;;;;;;;7.55;3.30;;;17.00;45.50;;;;;;4946634;28;20111;-81
2021/06/03 06:46:37;;;;;;;8.68;4.10;;;17.90;45.60;;;;;;4930026;29;20048;-93
2021/06/03 06:49:44;;;;;;;6.88;3.30;;;18.10;45.70;;;;;;4930342;29;20071;-91
2021/06/03 06:56:07;;;;;;;6.80;3.22;;;18.30;45.50;;;;;;4856065;29;20037;-86
2021/06/03 07:05:20;;;;;;;6.63;3.28;;;18.70;45.90;;;;;;4897040;29;20034;-89
2021/06/03 07:13:45;;;;;;;8.00;3.75;;;19.10;45.80;;;;;;5026749;23;20078;-90
2021/06/03 07:28:04;;;;;;;8.50;3.40;;;19.60;46.00;;;;;;4730185;30;20063;-89
2021/06/03 07:31:23;;;;;;;7.90;3.13;;;19.70;45.90;;;;;;4731350;30;20044;-90
2021/06/03 07:33:59;;;;;;;5.88;3.00;;;19.90;45.80;;;;;;4741215;29;20052;-89
2021/06/03 07:36:36;;;;;;;5.95;3.17;;;19.90;45.70;;;;;;4875783;29;20020;-92
2021/06/03 07:39:05;;;;;;;6.55;3.30;;;20.10;45.90;;;;;;4938378;29;20395;-90
2021/06/03 07:41:31;;;;;;;7.40;3.28;;;20.20;45.90;;;;;;4954223;28;20441;-85
2021/06/03 07:43:57;;;;;;;7.28;3.08;;;20.30;46.00;;;;;;4954302;28;20078;-86
2021/06/03 07:46:22;;;;;;;6.00;2.85;;;20.50;46.20;;;;;;4937070;28;20105;-87
2021/06/03 07:48:48;;;;;;;6.32;2.80;;;20.60;46.00;;;;;;4954034;28;20019;-87
2021/06/03 07:51:16;;;;;;;7.60;2.67;;;20.70;46.00;;;;;;4936940;28;20264;-85
2021/06/03 07:53:41;;;;;;;6.30;3.10;;;20.80;46.10;;;;;;4937434;28;20019;-84
2021/06/03 07:56:07;;;;;;;7.00;2.90;;;21.00;46.10;;;;;;4954363;28;20035;-84
2021/06/03 07:58:33;;;;;;;7.23;3.13;;;21.10;45.90;;;;;;4954050;28;20164;-85
2021/06/03 08:00:59;;;;;;;6.65;3.25;;;21.10;45.80;;;;;;4954056;28;20260;-85
2021/06/03 08:03:26;;;;;;;6.47;2.80;;;21.30;46.00;;;;;;4944736;28;20027;-86
2021/06/03 08:05:52;;;;;;;6.68;3.10;;;21.40;46.10;;;;;;4937612;29;20032;-84
2021/06/03 08:08:18;;;;;;;11.32;7.55;;;21.50;46.10;;;;;;4953623;28;20909;-84
2021/06/03 08:10:43;;;;;;;8.60;4.13;;;21.70;46.10;;;;;;4953968;28;20545;-84
2021/06/03 08:13:10;;;;;;;5.88;2.90;;;21.80;46.00;;;;;;4953882;28;20051;-84
2021/06/03 08:15:38;;;;;;;6.82;2.70;;;21.90;46.20;;;;;;4953505;28;20471;-85
2021/06/03 08:18:05;;;;;;;8.95;3.10;;;22.10;46.00;;;;;;4953990;28;20027;-86
2021/06/03 08:20:45;;;;;;;5.63;2.70;;;22.20;46.00;;;;;;4936257;28;20122;-85
2021/06/03 08:23:16;;;;;;;8.27;3.00;;;22.30;46.00;;;;;;4953036;28;20069;-85
2021/06/03 08:25:44;;;;;;;8.25;2.75;;;22.50;46.00;;;;;;4955902;28;20027;-86
2021/06/03 08:28:10;;;;;;;5.85;2.72;;;22.60;45.80;;;;;;4956953;28;20383;-85
2021/06/03 08:30:36;;;;;;;8.32;2.90;;;22.60;45.70;;;;;;4957464;28;20015;-85
2021/06/03 08:33:04;;;;;;;7.35;2.90;;;22.80;45.70;;;;;;4943614;29;20066;-82
2021/06/03 08:35:30;;;;;;;5.93;2.88;;;22.80;45.50;;;;;;4940352;28;20031;-81
2021/06/03 08:37:58;;;;;;;5.85;2.50;;;22.80;45.50;;;;;;4957593;28;20031;-82
2021/06/03 08:40:26;;;;;;;6.32;2.80;;;22.90;45.70;;;;;;4957322;28;20072;-82
2021/06/03 08:42:55;;;;;;;6.35;2.63;;;23.10;45.80;;;;;;4962047;28;20067;-83
2021/06/03 08:45:25;;;;;;;7.07;2.90;;;23.20;45.80;;;;;;4945389;29;20078;-83
2021/06/03 08:47:52;;;;;;;5.03;2.70;;;23.40;45.70;;;;;;4947630;29;20375;-83
2021/06/03 08:50:19;;;;;;;3.97;2.50;;;23.60;45.90;;;;;;4949666;29;20035;-83
2021/06/03 08:52:45;;;;;;;5.80;2.80;;;23.70;45.80;;;;;;4946897;28;20052;-83
2021/06/03 08:56:14;;;;;;;7.35;2.92;;;23.80;45.80;;;;;;4929166;29;20119;-83
2021/06/03 08:58:03;;;;;;;6.75;2.72;;;24.00;45.70;;;;;;4955613;28;20364;-83
2021/06/03 09:00:29;;;;;;;7.18;2.70;;;24.10;45.40;;;;;;4942957;29;20563;-84
2021/06/03 09:02:54;;;;;;;4.55;2.80;;;24.20;45.40;;;;;;4925477;28;20118;-83
2021/06/03 09:05:20;;;;;;;6.90;2.80;;;24.30;45.40;;;;;;4925873;29;20031;-83
2021/06/03 09:07:48;;;;;;;6.90;2.83;;;24.40;45.30;;;;;;4928721;28;20110;-83
2021/06/03 09:10:34;;;;;;;7.07;2.40;;;24.50;45.90;;;;;;4925249;29;20038;-83
2021/06/03 09:13:18;;;;;;;4.88;2.53;;;24.70;45.30;;;;;;4938516;29;20047;-83
2021/06/03 09:15:51;;;;;;;7.05;3.45;;;24.90;45.20;;;;;;4943001;29;20058;-83
2021/06/03 09:18:25;;;;;;;5.68;2.88;;;24.90;45.00;;;;;;4943502;28;20122;-83
2021/06/03 09:20:50;;;;;;;5.97;2.25;;;25.00;44.90;;;;;;4944014;28;20537;-83
2021/06/03 09:23:56;;;;;;;6.25;2.50;;;25.10;44.80;;;;;;4943433;28;20032;-84
2021/06/03 09:26:24;;;;;;;5.63;2.63;;;25.30;45.00;;;;;;4938425;29;20015;-83
2021/06/03 09:28:51;;;;;;;4.88;2.40;;;25.40;44.90;;;;;;4942089;28;20027;-83
2021/06/03 09:31:16;;;;;;;5.82;2.55;;;25.50;44.80;;;;;;4928196;28;20027;-84
2021/06/03 09:33:50;;;;;;;6.95;3.45;;;25.70;44.70;;;;;;4942529;28;20033;-84
2021/06/03 09:36:38;;;;;;;8.95;3.60;;;25.70;44.40;;;;;;4942707;28;20031;-83
2021/06/03 09:39:24;;;;;;;5.60;2.70;;;25.80;44.30;;;;;;4943502;28;20059;-83
2021/06/03 09:42:04;;;;;;;4.25;2.30;;;26.00;44.50;;;;;;4946175;28;20039;-84
2021/06/03 09:44:33;;;;;;;4.78;2.20;;;26.10;44.40;;;;;;4937865;28;20030;-84
2021/06/03 09:47:07;;;;;;;4.65;2.33;;;26.30;44.30;;;;;;4939513;29;20032;-83
2021/06/03 09:49:40;;;;;;;5.70;2.83;;;26.40;44.10;;;;;;4956440;28;20062;-83
2021/06/03 09:52:13;;;;;;;4.57;2.40;;;26.50;44.10;;;;;;4956843;28;20033;-84
2021/06/03 09:54:41;;;;;;;4.65;2.47;;;26.70;44.10;;;;;;4938997;29;20027;-83
2021/06/03 09:57:10;;;;;;;7.40;2.78;;;26.70;43.90;;;;;;4938821;28;20035;-84
2021/06/03 09:59:41;;;;;;;5.47;2.55;;;26.90;43.90;;;;;;4939423;29;20039;-84
2021/06/03 10:02:15;;;;;;;6.93;2.70;;;27.00;43.90;;;;;;4956216;28;20015;-84
2021/06/03 10:04:46;;;;;;;4.10;2.10;;;27.20;43.50;;;;;;4955882;28;20497;-84
2021/06/03 10:07:28;;;;;;;5.60;2.20;;;27.20;43.60;;;;;;4939162;29;20094;-84
2021/06/03 10:10:11;;;;;;;11.15;2.50;;;27.40;43.70;;;;;;4933713;29;20019;-84
2021/06/03 10:12:42;;;;;;;3.72;2.10;;;27.50;43.40;;;;;;4949642;28;20118;-84
2021/06/03 10:15:13;;;;;;;2.95;2.00;;;27.60;43.00;;;;;;4955861;28;20026;-84
2021/06/03 10:17:47;;;;;;;5.85;2.10;;;27.60;42.90;;;;;;4955910;28;20027;-84
2021/06/03 10:20:36;;;;;;;5.80;2.50;;;27.80;43.00;;;;;;4933451;29;20364;-84
2021/06/03 10:23:03;;;;;;;5.15;2.50;;;27.90;42.90;;;;;;4938909;29;20023;-84
2021/06/03 10:25:31;;;;;;;6.18;2.35;;;28.20;42.80;;;;;;4922480;28;20031;-84
2021/06/03 10:28:09;;;;;;;4.72;2.30;;;28.30;42.60;;;;;;4956236;28;20019;-84
2021/06/03 10:30:39;;;;;;;4.32;2.28;;;28.50;42.30;;;;;;4955950;28;20534;-84
2021/06/03 10:33:13;;;;;;;4.22;2.20;;;28.70;42.30;;;;;;4921907;28;20387;-84
2021/06/03 10:35:40;;;;;;;2.65;1.90;;;28.80;41.90;;;;;;4938633;28;20027;-84
2021/06/03 10:38:08;;;;;;;6.05;2.50;;;29.00;42.10;;;;;;4938609;29;20094;-84
2021/06/03 10:40:41;;;;;;;5.80;2.50;;;29.10;42.00;;;;;;4938128;28;20039;-84
2021/06/03 10:43:07;;;;;;;4.97;2.30;;;29.20;41.60;;;;;;4938708;29;20094;-84
2021/06/03 10:45:35;;;;;;;6.00;2.20;;;29.40;41.70;;;;;;4955174;28;20119;-84
2021/06/03 10:48:01;;;;;;;5.15;2.67;;;29.60;41.60;;;;;;4938364;28;20039;-84
2021/06/03 10:50:35;;;;;;;6.28;2.60;;;29.70;41.40;;;;;;4919295;29;20469;-84
2021/06/03 10:53:05;;;;;;;;;;;29.80;41.10;;;;;;4937019;28;20058;-84
2021/06/03 10:55:35;;;;;;;5.75;2.30;;;29.90;41.10;;;;;;4922485;29;19954;-84
2021/06/03 10:58:05;;;;;;;5.20;2.53;;;29.90;40.90;;;;;;4938007;29;20046;-84
2021/06/03 11:00:40;;;;;;;2.72;2.00;;;30.10;41.00;;;;;;4920927;28;20095;-84
2021/06/03 11:03:08;;;;;;;3.60;2.20;;;30.30;41.00;;;;;;4938018;29;20439;-84
2021/06/03 11:05:42;;;;;;;3.58;2.20;;;30.50;41.10;;;;;;4937537;28;20037;-84
2021/06/03 11:08:41;;;;;;;5.07;2.10;;;30.90;41.30;;;;;;4954822;28;20129;-84
2021/06/03 11:11:12;;;;;;;4.28;2.05;;;31.30;41.00;;;;;;4954460;28;20031;-84
2021/06/03 11:13:47;;;;;;;5.60;2.00;;;31.70;41.00;;;;;;4954874;28;20051;-84
2021/06/03 11:16:23;;;;;;;4.30;2.20;;;32.00;41.00;;;;;;4948918;28;20031;-84
2021/06/03 11:18:49;;;;;;;4.47;2.20;;;32.60;41.60;;;;;;4954583;28;20402;-84
2021/06/03 11:21:33;;;;;;;4.97;2.08;;;33.30;41.70;;;;;;4938053;28;20035;-84
2021/06/03 11:24:33;;;;;;;3.45;2.10;;;33.90;42.20;;;;;;4950676;28;20151;-84
2021/06/03 11:27:00;;;;;;;4.80;2.15;;;34.70;42.40;;;;;;4954440;28;20200;-84
2021/06/03 11:29:27;;;;;;;4.25;2.28;;;35.70;42.50;;;;;;4962572;28;20106;-85
2021/06/03 11:32:04;;;;;;;3.75;2.47;;;36.10;41.70;;;;;;4956442;28;20383;-85
2021/06/03 11:34:38;;;;;;;3.25;2.03;;;36.90;41.80;;;;;;4958913;28;20031;-85
2021/06/03 11:37:08;;;;;;;2.88;2.08;;;37.50;40.90;;;;;;4948348;28;20078;-85
2021/06/03 11:39:41;;;;;;;2.10;1.90;;;38.20;41.40;;;;;;4954568;28;20035;-85
2021/06/03 11:42:21;;;;;;;3.53;2.20;;;39.00;41.00;;;;;;4955069;28;20027;-85
2021/06/03 11:45:10;;;;;;;4.65;2.05;;;;;;;;;;4949108;28;20058;-85
2021/06/03 11:47:40;;;;;;;3.88;1.92;;;;;;;;;;4954560;28;20019;-85
2021/06/03 11:50:07;;;;;;;3.67;2.10;;;;;;;;;;4954352;28;20394;-85
2021/06/03 11:52:33;;;;;;;3.22;2.10;;;;;;;;;;4954556;28;20082;-83
2021/06/03 11:55:00;;;;;;;3.47;1.90;;;;;;;;;;4936888;29;20032;-83
2021/06/03 11:57:30;;;;;;;4.80;2.00;;;;;;;;;;4936710;28;20038;-83
2021/06/03 11:59:57;;;;;;;4.40;2.10;;;;;;;;;;4954306;28;20031;-83
2021/06/03 12:02:32;;;;;;;4.28;1.90;;;;;;;;;;4954596;28;20625;-83
2021/06/03 12:05:10;;;;;;;3.00;1.90;;;;;;;;;;4954233;28;20033;-83
2021/06/03 12:07:42;;;;;;;3.08;1.90;;;;;;;;;;4954400;28;20047;-83
2021/06/03 12:10:09;;;;;;;3.05;2.00;;;;;;;;;;4954211;28;20058;-83
2021/06/03 12:12:35;;;;;;;3.13;1.90;;;;;;;;;;4954182;28;20365;-83
2021/06/03 12:15:03;;;;;;;3.17;2.15;;;;;;;;;;4954398;28;20027;-84
2021/06/03 12:17:29;;;;;;;4.05;2.17;;;;;;;;;;4936989;28;20019;-83
2021/06/03 12:19:56;;;;;;;2.60;2.00;;;;;;;;;;4954325;28;20042;-83
2021/06/03 12:22:25;;;;;;;5.18;2.20;;;;;;;;;;4959041;28;20126;-84
2021/06/03 12:24:53;;;;;;;3.78;2.10;;;;;;;;;;4959242;28;20348;-84
2021/06/03 12:27:29;;;;;;;2.63;2.10;;;;;;;;;;4954479;28;20122;-84
2021/06/03 12:29:55;;;;;;;4.85;2.22;;;;;;;;;;4954244;28;20042;-83
2021/06/03 12:32:22;;;;;;;5.90;2.38;;;;;;;;;;4954082;28;20511;-83
2021/06/03 12:34:48;;;;;;;4.35;2.10;;;;;;;;;;4936423;29;20051;-84
2021/06/03 12:37:31;;;;;;;3.88;2.28;;;;;;;;;;4936434;28;20027;-84
2021/06/03 12:39:58;;;;;;;3.42;2.40;;;;;;;;;;4961433;28;20023;-83
2021/06/03 12:42:25;;;;;;;4.90;2.30;;;;;;;;;;4954404;28;20031;-84
2021/06/03 12:44:55;;;;;;;4.20;2.50;;;;;;;;;;4955031;28;20374;-84
2021/06/03 12:47:30;;;;;;;2.50;2.30;;;;;;;;;;4942778;29;20027;-84
2021/06/03 12:50:15;;;;;;;2.95;2.50;;;;;;;;;;4936615;29;20035;-84
2021/06/03 12:52:44;;;;;;;3.85;2.40;;;;;;;;;;4939374;28;20091;-84
2021/06/03 12:55:10;;;;;;;4.28;2.80;;;;;;;;;;4948519;29;20118;-84
2021/06/03 12:57:42;;;;;;;3.85;2.70;;;;;;;;;;4954027;28;20098;-89
2021/06/03 13:00:11;;;;;;;4.43;2.85;;;;;;;;;;4952169;28;20023;-82
2021/06/03 13:02:37;;;;;;;3.45;2.80;;;;;;;;;;4951049;28;20387;-82
2021/06/03 13:05:04;;;;;;;5.13;2.90;;;;;;;;;;4953670;28;20082;-82
2021/06/03 13:07:32;;;;;;;3.92;2.95;;;;;;;;;;4945911;28;20090;-82
2021/06/03 13:10:05;;;;;;;4.88;3.00;;;;;;;;;;4955778;28;20407;-85
2021/06/03 13:12:31;;;;;;;5.20;3.13;;;;;;;;;;4940069;28;20051;-83
2021/06/03 13:14:58;;;;;;;4.53;2.60;;;;;;;;;;4957692;28;20024;-85
2021/06/03 13:17:29;;;;;;;3.30;2.40;;;;;;;;;;4940054;29;20353;-85
2021/06/03 13:19:55;;;;;;;3.25;2.00;;;;;;;;;;4957637;28;20537;-85
2021/06/03 13:22:24;;;;;;;3.72;2.05;;;;;;;;;;4920835;29;20086;-85
2021/06/03 13:24:51;;;;;;;4.15;2.20;;;;;;;;;;4955932;28;20035;-86
2021/06/03 13:27:20;;;;;;;3.13;2.13;;;;;;;;;;4957775;28;20502;-85
2021/06/03 13:29:50;;;;;;;3.75;2.22;;;;;;;;;;4955190;28;20357;-85
2021/06/03 13:32:17;;;;;;;2.83;2.20;;;;;;;;;;4954489;28;20030;-86
2021/06/03 13:34:45;;;;;;;4.55;2.50;;;;;;;;;;4945609;28;20113;-86
2021/06/03 13:37:16;;;;;;;4.63;2.40;;;;;;;;;;4954749;28;20031;-87
2021/06/03 13:39:42;;;;;;;3.88;2.50;;;;;;;;;;4939403;28;20050;-87
2021/06/03 13:42:11;;;;;;;2.83;2.45;;;;;;;;;;4939654;29;20043;-87
2021/06/03 13:44:57;;;;;;;3.78;2.70;;;;;;;;;;4939666;28;20114;-88
2021/06/03 13:47:39;;;;;;;4.55;2.90;;;;;;;;;;4939556;28;20130;-87
2021/06/03 13:50:13;;;;;;;3.50;3.00;;;;;;;;;;4939477;29;20058;-87
2021/06/03 13:52:43;;;;;;;4.28;3.10;;;;;;;;;;4950339;28;20034;-88
2021/06/03 13:55:13;;;;;;;4.30;2.78;;;;;;;;;;4956294;28;20050;-86
2021/06/03 13:57:46;;;;;;;3.30;2.80;;;;;;;;;;4956278;28;20027;-86
2021/06/03 14:00:22;;;;;;;3.35;2.60;;;;;;;;;;4956391;28;20027;-86
2021/06/03 14:03:01;;;;;;;3.10;2.70;;;;;;;;;;4939047;28;20050;-86
2021/06/03 14:05:27;;;;;;;3.10;2.80;;;;;;;;;;4956039;28;20158;-86
2021/06/03 14:08:08;;;;;;;4.60;3.00;;;;;;;;;;4953854;28;20032;-87
2021/06/03 14:10:34;;;;;;;;;;;;;;;;;;4951053;28;20038;-87
2021/06/03 14:13:04;;;;;;;2.83;2.30;;;;;;;;;;4956008;28;20024;-86
2021/06/03 14:15:40;;;;;;;4.82;2.70;;;;;;;;;;4938933;29;20458;-88
2021/06/03 14:18:07;;;;;;;3.33;2.17;;;;;;;;;;4945846;28;20031;-87
2021/06/03 14:20:33;;;;;;;2.60;1.90;;;;;;;;;;4945334;28;20028;-86
2021/06/03 14:23:00;;;;;;;3.30;2.30;;;;;;;;;;4938942;29;20046;-86
2021/06/03 14:25:35;;;;;;;5.03;2.40;;;;;;;;;;4922489;28;20055;-88
2021/06/03 14:28:10;;;;;;;3.00;1.85;;;;;;;;;;4938840;28;20066;-86
2021/06/03 14:30:37;;;;;;;2.78;1.90;;;;;;;;;;4939028;29;20031;-87
2021/06/03 14:33:06;;;;;;;3.90;2.50;;;;;;;;;;4955658;28;20439;-87
2021/06/03 14:35:34;;;;;;;3.75;2.47;;;;;;;;;;4955751;28;20023;-87
2021/06/03 14:38:00;;;;;;;4.00;2.50;;;;;;;;;;4955614;28;20027;-87
2021/06/03 14:40:31;;;;;;;2.90;2.50;;;;;;;;;;4955544;28;20360;-87
2021/06/03 14:42:57;;;;;;;;;;;;;;;;;;4950791;28;20019;-88
2021/06/03 14:45:32;;;;;;;4.70;2.80;;;;;;;;;;4955543;28;19921;-87
2021/06/03 14:47:59;;;;;;;4.55;2.90;;;;;;;;;;4955650;28;20384;-87
2021/06/03 14:50:27;;;;;;;3.40;2.88;;;;;;;;;;4937997;29;20039;-88
2021/06/03 14:52:54;;;;;;;4.65;3.10;;;;;;;;;;4955129;28;20046;-88
2021/06/03 14:55:22;;;;;;;4.65;3.10;;;;;;;;;;4957458;28;20035;-86
2021/06/03 14:57:48;;;;;;;5.97;3.20;;;;;;;;;;4937974;29;20387;-85
2021/06/03 15:00:19;;;;;;;4.30;3.20;;;;;;;;;;4952174;28;20098;-85
2021/06/03 15:02:45;;;;;;;;;;;;;;;;;;4951170;28;20384;-85
2021/06/03 15:05:11;;;;;;;5.03;3.22;;;;;;;;;;4952328;28;19913;-86
2021/06/03 15:07:39;;;;;;;7.03;3.50;;;;;;;;;;4938234;29;20029;-86
2021/06/03 15:10:06;;;;;;;3.95;3.13;;;;;;;;;;4936504;28;20039;-88
2021/06/03 15:12:32;;;;;;;5.85;3.20;;;;;;;;;;4954027;28;20432;-89
2021/06/03 15:14:58;;;;;;;3.92;2.80;;;;;;;;;;4955581;28;20093;-88
2021/06/03 15:17:24;;;;;;;4.20;2.90;;;;;;;;;;4942826;28;20027;-89
2021/06/03 15:19:52;;;;;;;3.10;2.72;;;;;;;;;;4954554;28;20456;-86
2021/06/03 15:22:20;;;;;;;4.15;2.70;;;;;;;;;;4940857;28;20041;-85
2021/06/03 15:24:46;;;;;;;3.22;2.60;;;;;;;;;;4952809;28;20495;-87
2021/06/03 15:27:13;;;;;;;3.08;2.70;;;;;;;;;;4962415;28;20027;-87
2021/06/03 15:29:48;;;;;;;4.97;2.80;;;;;;;;;;4946430;28;20035;-87
2021/06/03 15:32:24;;;;;;;3.28;2.78;;;;;;;;;;4960363;28;20388;-87
2021/06/03 15:34:50;;;;;;;4.07;2.88;;;;;;;;;;4928086;29;20111;-87
2021/06/03 15:37:16;;;;;;;4.60;2.90;;;;;;;;;;4934996;28;20502;-87
2021/06/03 15:39:44;;;;;;;3.67;2.40;;;;;;;;;;4944890;29;20050;-88
2021/06/03 15:42:16;;;;;;;3.55;2.28;;;;;;;;;;4937739;28;20027;-89
2021/06/03 15:44:42;;;;;;;3.70;2.13;;;;;;;;;;4937749;29;20383;-86
2021/06/03 15:47:08;;;;;;;4.20;1.83;;;;;;;;;;4954224;28;20094;-86